createdAt,value
2023-05-14T00:01:24.676Z,11.45
2023-05-14T00:03:26.290Z,10.38
2023-05-14T00:05:27.915Z,10.57
2023-05-14T00:07:31.020Z,11.77
2023-05-14T00:09:32.860Z,10.30
2023-05-14T00:11:34.348Z,10.80
2023-05-14T00:13:36.008Z,10.32
2023-05-14T00:15:37.799Z,10.30
2023-05-14T00:17:39.435Z,11.20
2023-05-14T00:19:41.028Z,11.27
2023-05-14T00:21:42.557Z,12.15
2023-05-14T00:23:45.454Z,10.13
2023-05-14T00:25:46.962Z,9.40
2023-05-14T00:27:48.473Z,12.52
2023-05-14T00:29:49.970Z,12.90
2023-05-14T00:31:51.625Z,12.73
2023-05-14T00:33:53.178Z,10.45
2023-05-14T00:35:54.670Z,10.77
2023-05-14T00:37:56.215Z,13.07
2023-05-14T00:39:59.077Z,11.30
2023-05-14T00:42:00.575Z,11.30
2023-05-14T00:44:02.141Z,10.32
2023-05-14T00:46:03.760Z,11.20
2023-05-14T00:48:05.636Z,12.40
2023-05-14T00:50:08.470Z,11.57
2023-05-14T00:52:11.299Z,12.38
2023-05-14T00:54:13.753Z,12.63
2023-05-14T00:56:17.943Z,12.00
2023-05-14T00:58:19.948Z,12.40
2023-05-14T01:00:21.852Z,10.70
2023-05-14T01:02:23.856Z,11.32
2023-05-14T01:04:25.444Z,10.55
2023-05-14T01:06:36.834Z,13.70
2023-05-14T01:08:56.965Z,11.77
2023-05-14T01:11:06.404Z,13.35
2023-05-14T01:13:18.695Z,11.73
2023-05-14T01:15:26.535Z,12.98
2023-05-14T01:17:30.935Z,12.25
2023-05-14T01:19:37.135Z,12.45
2023-05-14T01:21:43.399Z,12.73
2023-05-14T01:23:44.905Z,10.50
2023-05-14T01:25:46.538Z,11.98
2023-05-14T01:27:54.654Z,13.50
2023-05-14T01:30:02.938Z,10.93
2023-05-14T01:32:08.112Z,12.23
2023-05-14T01:34:12.550Z,11.60
2023-05-14T01:36:14.241Z,11.18
2023-05-14T01:38:18.831Z,11.77
2023-05-14T01:40:20.688Z,9.60
2023-05-14T01:42:23.160Z,10.93
2023-05-14T01:44:24.982Z,9.93
2023-05-14T01:46:26.617Z,10.05
2023-05-14T01:48:28.135Z,12.15
2023-05-14T01:50:29.798Z,11.25
2023-05-14T01:52:31.259Z,11.98
2023-05-14T01:54:34.330Z,10.43
2023-05-14T01:56:35.816Z,10.32
2023-05-14T01:58:37.332Z,8.98
2023-05-14T02:00:38.826Z,10.77
2023-05-14T02:02:40.418Z,10.80
2023-05-14T02:04:41.937Z,9.75
2023-05-14T02:06:43.410Z,9.10
2023-05-14T02:08:44.915Z,8.48
2023-05-14T02:10:47.746Z,9.27
2023-05-14T02:12:49.246Z,10.55
2023-05-14T02:14:50.771Z,11.82
2023-05-14T02:16:52.265Z,10.15
2023-05-14T02:18:53.790Z,11.07
2023-05-14T02:20:55.319Z,12.00
2023-05-14T02:22:56.805Z,9.73
2023-05-14T02:24:58.293Z,11.13
2023-05-14T02:27:01.218Z,10.02
2023-05-14T02:29:02.792Z,11.90
2023-05-14T02:31:04.345Z,9.55
2023-05-14T02:33:05.945Z,10.43
2023-05-14T02:35:08.514Z,10.38
2023-05-14T02:37:10.038Z,10.23
2023-05-14T02:39:11.601Z,10.90
2023-05-14T02:41:13.057Z,10.82
2023-05-14T02:43:15.905Z,10.32
2023-05-14T02:45:17.401Z,11.30
2023-05-14T02:47:19.106Z,12.23
2023-05-14T02:49:20.630Z,13.05
2023-05-14T02:51:22.136Z,12.00
2023-05-14T02:53:23.608Z,10.43
2023-05-14T02:55:25.127Z,13.50
2023-05-14T02:57:26.586Z,11.15
2023-05-14T02:59:29.839Z,13.25
2023-05-14T03:03:33.675Z,12.45
2023-05-14T03:05:35.791Z,12.73
2023-05-14T03:07:37.295Z,11.65
2023-05-14T03:09:38.779Z,12.55
2023-05-14T03:11:40.325Z,12.48
2023-05-14T03:13:41.860Z,12.77
2023-05-14T03:15:44.716Z,12.30
2023-05-14T03:17:46.224Z,12.00
2023-05-14T03:19:47.765Z,12.35
2023-05-14T03:21:49.299Z,12.70
2023-05-14T03:23:52.297Z,11.00
2023-05-14T03:25:53.851Z,13.63
2023-05-14T03:27:55.353Z,11.70
2023-05-14T03:29:56.842Z,11.13
2023-05-14T03:31:59.731Z,11.55
2023-05-14T03:34:01.283Z,12.85
2023-05-14T03:36:02.965Z,11.50
2023-05-14T03:38:04.485Z,13.77
2023-05-14T03:40:07.660Z,10.23
2023-05-14T03:42:09.183Z,11.02
2023-05-14T03:44:10.678Z,13.25
2023-05-14T03:46:12.175Z,14.15
2023-05-14T03:48:15.186Z,12.05
2023-05-14T03:50:16.852Z,13.43
2023-05-14T03:52:18.348Z,15.23
2023-05-14T03:54:19.822Z,11.07
2023-05-14T03:56:21.364Z,11.98
2023-05-14T03:58:22.834Z,11.95
2023-05-14T04:00:24.669Z,11.55
2023-05-14T04:02:26.996Z,13.02
2023-05-14T04:04:29.981Z,13.25
2023-05-14T04:06:32.898Z,11.57
2023-05-14T04:08:34.421Z,11.73
2023-05-14T04:10:36.063Z,11.65
2023-05-14T04:12:37.577Z,15.77
2023-05-14T04:14:39.069Z,12.75
2023-05-14T04:16:40.658Z,13.38
2023-05-14T04:18:42.285Z,10.88
2023-05-14T04:20:45.205Z,15.13
2023-05-14T04:22:46.722Z,13.35
2023-05-14T04:24:48.268Z,15.05
2023-05-14T04:26:49.753Z,12.98
2023-05-14T04:28:51.270Z,11.73
2023-05-14T04:30:53.180Z,11.43
2023-05-14T04:32:54.687Z,12.88
2023-05-14T04:34:56.184Z,11.38
2023-05-14T04:36:59.001Z,11.82
2023-05-14T04:39:00.469Z,14.57
2023-05-14T04:41:01.938Z,12.73
2023-05-14T04:43:03.432Z,11.82
2023-05-14T04:45:05.826Z,12.55
2023-05-14T04:47:07.329Z,15.60
2023-05-14T04:49:08.805Z,16.60
2023-05-14T04:51:10.378Z,12.98
2023-05-14T04:53:13.316Z,14.48
2023-05-14T04:55:14.864Z,14.10
2023-05-14T04:57:16.402Z,14.45
2023-05-14T04:59:17.949Z,14.95
2023-05-14T05:01:19.498Z,14.38
2023-05-14T05:03:21.067Z,13.95
2023-05-14T05:05:22.991Z,16.63
2023-05-14T05:07:24.474Z,15.40
2023-05-14T05:09:27.341Z,20.92
2023-05-14T05:11:28.841Z,13.95
2023-05-14T05:13:30.317Z,14.32
2023-05-14T05:15:31.815Z,14.57
2023-05-14T05:17:33.333Z,16.25
2023-05-14T05:19:42.923Z,15.68
2023-05-14T05:21:45.563Z,14.82
2023-05-14T05:23:47.106Z,15.88
2023-05-14T05:25:50.383Z,14.85
2023-05-14T05:27:51.872Z,13.73
2023-05-14T05:29:53.353Z,15.57
2023-05-14T05:31:54.944Z,16.02
2023-05-14T05:33:56.609Z,14.32
2023-05-14T05:35:58.136Z,13.18
2023-05-14T05:38:01.608Z,12.68
2023-05-14T05:40:04.052Z,14.02
2023-05-14T05:42:07.600Z,15.20
2023-05-14T05:44:09.185Z,13.90
2023-05-14T05:46:11.754Z,12.80
2023-05-14T05:48:13.346Z,11.98
2023-05-14T05:50:14.930Z,11.68
2023-05-14T05:52:16.495Z,12.63
2023-05-14T05:54:17.964Z,13.13
2023-05-14T05:56:19.502Z,11.45
2023-05-14T05:58:22.416Z,15.13
2023-05-14T06:00:24.206Z,13.45
2023-05-14T06:02:26.045Z,14.63
2023-05-14T06:04:27.641Z,14.85
2023-05-14T06:06:29.467Z,18.08
2023-05-14T06:08:30.949Z,14.20
2023-05-14T06:10:33.207Z,14.35
2023-05-14T06:12:34.701Z,14.30
2023-05-14T06:14:37.579Z,12.43
2023-05-14T06:16:39.142Z,13.93
2023-05-14T06:18:40.756Z,15.82
2023-05-14T06:20:42.245Z,12.60
2023-05-14T06:22:43.729Z,14.50
2023-05-14T06:24:45.254Z,12.57
2023-05-14T06:26:46.782Z,15.52
2023-05-14T06:28:48.264Z,10.77
2023-05-14T06:30:51.130Z,12.20
2023-05-14T06:32:52.791Z,11.55
2023-05-14T06:34:54.366Z,12.98
2023-05-14T06:36:55.933Z,13.13
2023-05-14T06:38:57.434Z,14.45
2023-05-14T06:40:58.992Z,13.20
2023-05-14T06:43:00.552Z,12.32
2023-05-14T06:45:02.303Z,11.77
2023-05-14T06:47:05.636Z,14.13
2023-05-14T06:49:07.191Z,11.88
2023-05-14T06:51:08.696Z,14.13
2023-05-14T06:53:10.159Z,13.23
2023-05-14T06:55:11.660Z,14.25
2023-05-14T06:57:13.149Z,14.25
2023-05-14T06:59:14.631Z,14.38
2023-05-14T07:01:16.853Z,13.90
2023-05-14T07:03:19.741Z,13.15
2023-05-14T07:05:21.351Z,15.38
2023-05-14T07:07:22.863Z,12.05
2023-05-14T07:09:24.410Z,12.60
2023-05-14T07:11:25.920Z,16.25
2023-05-14T07:13:28.623Z,13.05
2023-05-14T07:15:30.489Z,12.27
2023-05-14T07:17:32.061Z,12.93
2023-05-14T07:19:34.931Z,12.48
2023-05-14T07:21:36.456Z,11.60
2023-05-14T07:23:38.058Z,15.35
2023-05-14T07:25:39.542Z,14.98
2023-05-14T07:27:41.122Z,13.23
2023-05-14T07:29:42.684Z,14.73
2023-05-14T07:31:44.227Z,12.52
2023-05-14T07:33:45.757Z,12.70
2023-05-14T07:35:48.683Z,11.77
2023-05-14T07:37:50.243Z,12.80
2023-05-14T07:39:51.774Z,11.77
2023-05-14T07:41:53.368Z,13.38
2023-05-14T07:43:54.888Z,12.57
2023-05-14T07:45:56.431Z,12.50
2023-05-14T07:47:58.053Z,12.90
2023-05-14T07:49:59.708Z,12.30
2023-05-14T07:52:02.785Z,12.57
2023-05-14T07:54:04.662Z,10.95
2023-05-14T07:56:07.028Z,13.13
2023-05-14T07:58:09.285Z,16.92
2023-05-14T08:00:11.779Z,11.68
2023-05-14T08:02:13.325Z,11.93
2023-05-14T08:04:14.970Z,18.50
2023-05-14T08:06:16.513Z,12.27
2023-05-14T08:08:19.349Z,15.27
2023-05-14T08:10:20.927Z,12.45
2023-05-14T08:12:22.479Z,12.75
2023-05-14T08:14:23.938Z,12.80
2023-05-14T08:16:25.487Z,12.75
2023-05-14T08:18:27.053Z,11.40
2023-05-14T08:20:28.797Z,12.38
2023-05-14T08:22:30.361Z,12.07
2023-05-14T08:24:33.202Z,12.82
2023-05-14T08:26:34.751Z,12.00
2023-05-14T08:28:36.262Z,10.93
2023-05-14T08:30:37.831Z,16.05
2023-05-14T08:32:39.492Z,15.32
2023-05-14T08:34:42.762Z,12.52
2023-05-14T08:36:45.422Z,12.27
2023-05-14T08:38:46.928Z,11.45
2023-05-14T08:40:56.378Z,14.60
2023-05-14T08:42:58.959Z,12.82
2023-05-14T08:45:02.259Z,14.20
2023-05-14T08:47:04.411Z,12.57
2023-05-14T08:49:15.281Z,11.93
2023-05-14T08:51:16.832Z,12.75
2023-05-14T08:53:18.378Z,14.15
2023-05-14T08:55:19.962Z,10.30
2023-05-14T08:57:24.854Z,11.57
2023-05-14T08:59:26.618Z,12.13
2023-05-14T09:01:28.456Z,13.00
2023-05-14T09:03:30.553Z,11.02
2023-05-14T09:05:32.385Z,13.82
2023-05-14T09:07:33.874Z,14.00
2023-05-14T09:09:35.654Z,15.32
2023-05-14T09:11:41.120Z,12.50
2023-05-14T09:13:44.000Z,11.52
2023-05-14T09:15:47.540Z,12.07
2023-05-14T09:17:49.121Z,15.48
2023-05-14T09:19:51.141Z,15.88
2023-05-14T09:21:56.342Z,12.95
2023-05-14T09:23:58.040Z,15.00
2023-05-14T09:26:04.405Z,12.02
2023-05-14T09:28:08.456Z,11.68
2023-05-14T09:30:12.967Z,14.23
2023-05-14T09:32:14.547Z,14.20
2023-05-14T09:34:23.668Z,13.05
2023-05-14T09:36:25.568Z,12.98
2023-05-14T09:38:30.484Z,13.32
2023-05-14T09:40:32.177Z,15.05
2023-05-14T09:42:33.671Z,11.70
2023-05-14T09:44:35.193Z,11.57
2023-05-14T09:46:38.397Z,10.35
2023-05-14T09:48:39.944Z,11.18
2023-05-14T09:50:42.591Z,10.23
2023-05-14T09:52:44.150Z,12.13
2023-05-14T09:54:46.715Z,14.30
2023-05-14T09:56:48.240Z,14.25
2023-05-14T09:58:49.765Z,11.27
2023-05-14T10:00:53.617Z,12.52
2023-05-14T10:02:57.795Z,11.60
2023-05-14T10:05:02.593Z,10.23
2023-05-14T10:07:04.691Z,11.50
2023-05-14T10:09:12.974Z,11.05
2023-05-14T10:11:17.485Z,11.63
2023-05-14T10:13:22.621Z,10.73
2023-05-14T10:15:29.838Z,10.15
2023-05-14T10:17:32.776Z,9.45
2023-05-14T10:19:37.181Z,13.55
2023-05-14T10:21:41.148Z,10.77
2023-05-14T10:23:43.367Z,11.50
2023-05-14T10:25:45.711Z,10.98
2023-05-14T10:27:47.450Z,11.10
2023-05-14T10:29:52.340Z,9.73
2023-05-14T10:31:54.838Z,12.68
2023-05-14T10:33:58.031Z,9.65
2023-05-14T10:36:04.907Z,10.90
2023-05-14T10:38:08.090Z,10.63
2023-05-14T10:40:09.898Z,10.15
2023-05-14T10:42:12.477Z,9.88
2023-05-14T10:44:15.227Z,10.45
2023-05-14T10:46:16.868Z,8.95
2023-05-14T10:48:18.541Z,9.45
2023-05-14T10:50:20.956Z,11.05
2023-05-14T10:52:24.238Z,10.27
2023-05-14T10:54:27.698Z,9.35
2023-05-14T10:56:29.191Z,9.10
2023-05-14T10:58:31.446Z,9.25
2023-05-14T11:00:34.046Z,9.30
2023-05-14T11:02:37.191Z,9.52
2023-05-14T11:04:40.974Z,8.50
2023-05-14T11:08:45.205Z,9.65
2023-05-14T11:10:47.347Z,9.52
2023-05-14T11:12:50.544Z,9.25
2023-05-14T11:14:52.024Z,10.15
2023-05-14T11:16:54.633Z,10.45
2023-05-14T11:19:02.016Z,10.38
2023-05-14T11:21:03.845Z,9.52
2023-05-14T11:23:05.366Z,12.48
2023-05-14T11:25:09.543Z,8.27
2023-05-14T11:27:11.209Z,10.13
2023-05-14T11:29:12.779Z,9.65
2023-05-14T11:31:14.328Z,9.13
2023-05-14T11:33:16.171Z,9.27
2023-05-14T11:35:18.128Z,6.95
2023-05-14T11:37:19.723Z,9.15
2023-05-14T11:39:21.259Z,9.40
2023-05-14T11:41:24.169Z,8.73
2023-05-14T11:43:26.178Z,9.30
2023-05-14T11:45:27.793Z,10.27
2023-05-14T11:47:29.932Z,7.88
2023-05-14T11:49:31.567Z,7.25
2023-05-14T11:51:34.138Z,9.02
2023-05-14T11:53:35.607Z,6.97
2023-05-14T11:55:37.215Z,7.15
2023-05-14T11:57:40.373Z,9.02
2023-05-14T11:59:42.161Z,9.48
2023-05-14T12:01:44.150Z,10.05
2023-05-14T12:03:45.873Z,10.15
2023-05-14T12:05:55.548Z,10.52
2023-05-14T12:07:57.115Z,12.57
2023-05-14T12:10:01.847Z,12.90
2023-05-14T12:12:08.434Z,11.52
2023-05-14T12:14:17.017Z,10.27
2023-05-14T12:16:20.805Z,9.68
2023-05-14T12:18:24.913Z,9.43
2023-05-14T12:20:29.610Z,9.18
2023-05-14T12:22:31.117Z,9.68
2023-05-14T12:24:32.728Z,9.90
2023-05-14T12:26:34.526Z,8.52
2023-05-14T12:28:39.031Z,9.07
2023-05-14T12:30:41.880Z,7.70
2023-05-14T12:32:43.364Z,10.52
2023-05-14T12:34:44.936Z,9.63
2023-05-14T12:36:46.413Z,8.27
2023-05-14T12:38:48.327Z,8.98
2023-05-14T12:40:49.823Z,8.50
2023-05-14T12:42:51.307Z,8.20
2023-05-14T12:44:52.781Z,7.63
2023-05-14T12:46:55.738Z,11.15
2023-05-14T12:48:57.436Z,8.95
2023-05-14T12:50:58.952Z,8.65
2023-05-14T12:53:00.453Z,7.72
2023-05-14T12:55:01.919Z,8.52
2023-05-14T12:57:04.204Z,8.88
2023-05-14T12:59:05.699Z,8.43
2023-05-14T13:01:07.275Z,7.70
2023-05-14T13:03:10.241Z,9.70
2023-05-14T13:05:12.430Z,8.32
2023-05-14T13:07:14.155Z,7.47
2023-05-14T13:09:15.648Z,9.27
2023-05-14T13:11:17.125Z,8.77
2023-05-14T13:13:18.650Z,9.75
2023-05-14T13:15:20.125Z,7.90
2023-05-14T13:17:21.694Z,9.35
2023-05-14T13:19:24.600Z,7.10
2023-05-14T13:21:26.171Z,7.50
2023-05-14T13:23:27.655Z,9.57
2023-05-14T13:25:29.147Z,8.50
2023-05-14T13:27:30.691Z,10.40
2023-05-14T13:29:32.163Z,8.95
2023-05-14T13:31:33.708Z,9.10
2023-05-14T13:33:36.319Z,10.60
2023-05-14T13:35:39.159Z,8.73
2023-05-14T13:37:40.663Z,8.48
2023-05-14T13:39:42.168Z,8.05
2023-05-14T13:41:43.700Z,10.07
2023-05-14T13:43:46.420Z,8.20
2023-05-14T13:45:47.895Z,8.98
2023-05-14T13:47:49.650Z,8.50
2023-05-14T13:49:53.044Z,8.48
2023-05-14T13:51:55.876Z,8.93
2023-05-14T13:53:57.390Z,8.60
2023-05-14T13:55:58.891Z,7.38
2023-05-14T13:58:01.764Z,7.97
2023-05-14T14:00:03.937Z,7.90
2023-05-14T14:02:05.630Z,7.50
2023-05-14T14:04:07.136Z,6.70
2023-05-14T14:06:08.639Z,8.45
2023-05-14T14:08:22.826Z,6.88
2023-05-14T14:10:25.180Z,6.82
2023-05-14T14:12:26.835Z,6.43
2023-05-14T14:14:28.432Z,6.82
2023-05-14T14:16:29.966Z,8.15
2023-05-14T14:18:32.819Z,6.55
2023-05-14T14:20:34.843Z,6.88
2023-05-14T14:22:37.020Z,5.85
2023-05-14T14:24:39.846Z,6.68
2023-05-14T14:26:41.336Z,8.40
2023-05-14T14:28:42.850Z,6.72
2023-05-14T14:30:44.467Z,6.15
2023-05-14T14:32:46.321Z,6.40
2023-05-14T14:34:47.929Z,8.30
2023-05-14T14:36:49.443Z,6.20
2023-05-14T14:38:50.942Z,7.15
2023-05-14T14:40:53.788Z,8.35
2023-05-14T14:42:55.275Z,7.38
2023-05-14T14:44:56.769Z,5.70
2023-05-14T14:46:58.296Z,5.10
2023-05-14T14:48:59.855Z,5.07
2023-05-14T14:51:01.407Z,5.32
2023-05-14T14:53:02.885Z,6.07
2023-05-14T14:55:05.256Z,6.35
2023-05-14T14:57:08.094Z,5.68
2023-05-14T14:59:09.587Z,6.47
2023-05-14T15:01:11.122Z,6.35
2023-05-14T15:03:12.765Z,5.75
2023-05-14T15:05:14.734Z,6.05
2023-05-14T15:07:16.260Z,6.45
2023-05-14T15:09:17.742Z,6.18
2023-05-14T15:11:19.260Z,6.90
2023-05-14T15:13:22.393Z,6.90
2023-05-14T15:15:24.094Z,6.03
2023-05-14T15:17:25.798Z,6.22
2023-05-14T15:19:28.647Z,5.78
2023-05-14T15:21:30.148Z,6.82
2023-05-14T15:23:31.670Z,8.52
2023-05-14T15:25:33.167Z,6.25
2023-05-14T15:27:35.059Z,5.97
2023-05-14T15:29:37.966Z,8.65
2023-05-14T15:31:39.514Z,5.43
2023-05-14T15:33:41.052Z,5.82
2023-05-14T15:35:42.557Z,5.00
2023-05-14T15:37:44.694Z,5.13
2023-05-14T15:39:46.222Z,5.57
2023-05-14T15:41:47.740Z,4.82
2023-05-14T15:43:49.246Z,7.50
2023-05-14T15:45:52.110Z,4.85
2023-05-14T15:47:53.703Z,6.45
2023-05-14T15:49:55.283Z,5.10
2023-05-14T15:51:56.915Z,5.10
2023-05-14T15:53:58.465Z,6.35
2023-05-14T15:55:59.993Z,5.55
2023-05-14T15:58:01.902Z,5.00
2023-05-14T16:00:04.091Z,5.15
2023-05-14T16:02:07.521Z,6.68
2023-05-14T16:04:09.064Z,6.00
2023-05-14T16:06:10.984Z,5.85
2023-05-14T16:08:12.509Z,4.90
2023-05-14T16:10:14.097Z,4.85
2023-05-14T16:12:15.579Z,6.18
2023-05-14T16:14:17.132Z,4.72
2023-05-14T16:16:18.770Z,4.90
2023-05-14T16:18:21.748Z,4.88
2023-05-14T16:20:23.592Z,5.03
2023-05-14T16:22:25.233Z,6.18
2023-05-14T16:24:26.827Z,6.95
2023-05-14T16:26:28.436Z,6.28
2023-05-14T16:28:29.983Z,4.72
2023-05-14T16:30:31.622Z,5.00
2023-05-14T16:32:33.213Z,5.38
2023-05-14T16:34:36.069Z,6.10
2023-05-14T16:36:37.619Z,6.40
2023-05-14T16:38:48.186Z,5.03
2023-05-14T16:40:58.542Z,6.63
2023-05-14T16:43:00.136Z,6.45
2023-05-14T16:45:01.644Z,5.72
2023-05-14T16:47:03.412Z,5.88
2023-05-14T16:49:04.925Z,6.32
2023-05-14T16:51:07.767Z,5.97
2023-05-14T16:53:09.292Z,6.85
2023-05-14T16:55:10.803Z,5.47
2023-05-14T16:57:12.367Z,6.22
2023-05-14T16:59:13.976Z,5.35
2023-05-14T17:01:15.450Z,6.35
2023-05-14T17:03:16.980Z,5.72
2023-05-14T17:05:19.110Z,5.45
2023-05-14T17:07:21.956Z,5.78
2023-05-14T17:09:23.519Z,5.97
2023-05-14T17:11:25.038Z,5.38
2023-05-14T17:13:26.517Z,6.55
2023-05-14T17:15:28.109Z,5.45
2023-05-14T17:17:29.622Z,5.03
2023-05-14T17:19:31.107Z,5.80
2023-05-14T17:21:32.643Z,7.18
2023-05-14T17:23:35.514Z,6.28
2023-05-14T17:25:37.033Z,7.93
2023-05-14T17:27:38.561Z,6.78
2023-05-14T17:29:40.070Z,7.75
2023-05-14T17:31:41.548Z,8.43
2023-05-14T17:33:43.094Z,7.85
2023-05-14T17:35:44.632Z,5.95
2023-05-14T17:37:46.115Z,7.05
2023-05-14T17:39:49.013Z,5.32
2023-05-14T17:41:50.555Z,7.22
2023-05-14T17:43:52.034Z,5.45
2023-05-14T17:45:54.750Z,5.72
2023-05-14T17:47:56.459Z,6.28
2023-05-14T17:49:58.052Z,8.30
2023-05-14T17:51:59.621Z,9.30
2023-05-14T17:54:01.140Z,9.18
2023-05-14T17:56:05.128Z,6.90
2023-05-14T17:58:06.631Z,6.32
2023-05-14T18:00:08.913Z,6.78
2023-05-14T18:02:10.748Z,5.63
2023-05-14T18:04:12.449Z,6.28
2023-05-14T18:06:14.066Z,7.75
2023-05-14T18:08:15.550Z,6.60
2023-05-14T18:10:17.069Z,11.57
2023-05-14T18:12:19.901Z,5.07
2023-05-14T18:14:21.412Z,6.07
2023-05-14T18:16:23.037Z,6.95
2023-05-14T18:18:24.798Z,6.07
2023-05-14T18:20:26.283Z,6.13
2023-05-14T18:22:27.788Z,5.38
2023-05-14T18:24:29.508Z,7.70
2023-05-14T18:26:33.604Z,6.10
2023-05-14T18:28:37.647Z,6.22
2023-05-14T18:30:39.197Z,6.00
2023-05-14T18:32:40.882Z,7.05
2023-05-14T18:34:42.412Z,11.30
2023-05-14T18:36:44.006Z,7.88
2023-05-14T18:38:45.578Z,6.63
2023-05-14T18:40:47.042Z,7.07
2023-05-14T18:42:48.560Z,6.30
2023-05-14T18:44:51.393Z,7.65
2023-05-14T18:46:54.394Z,6.63
2023-05-14T18:48:56.232Z,5.95
2023-05-14T18:50:57.788Z,6.70
2023-05-14T18:52:59.315Z,8.02
2023-05-14T18:55:00.825Z,5.97
2023-05-14T18:57:02.396Z,6.30
2023-05-14T18:59:03.925Z,11.55
2023-05-14T19:01:06.978Z,7.47
2023-05-14T19:03:08.785Z,7.30
2023-05-14T19:05:10.597Z,5.60
2023-05-14T19:07:12.192Z,8.25
2023-05-14T19:09:13.668Z,9.48
2023-05-14T19:11:15.175Z,8.63
2023-05-14T19:13:16.750Z,7.95
2023-05-14T19:15:18.410Z,9.52
2023-05-14T19:17:21.425Z,7.15
2023-05-14T19:19:23.017Z,7.68
2023-05-14T19:21:24.628Z,8.90
2023-05-14T19:23:26.143Z,7.13
2023-05-14T19:25:28.120Z,6.90
2023-05-14T19:27:30.424Z,7.93
2023-05-14T19:29:31.978Z,7.13
2023-05-14T19:31:33.508Z,6.72
2023-05-14T19:33:36.385Z,8.57
2023-05-14T19:35:37.911Z,7.25
2023-05-14T19:37:39.462Z,7.63
2023-05-14T19:39:40.939Z,8.23
2023-05-14T19:41:42.437Z,6.95
2023-05-14T19:43:43.902Z,7.95
2023-05-14T19:45:45.450Z,6.47
2023-05-14T19:47:47.164Z,7.13
2023-05-14T19:49:50.009Z,6.80
2023-05-14T19:51:51.547Z,8.48
2023-05-14T19:53:53.038Z,7.97
2023-05-14T19:55:54.585Z,11.27
2023-05-14T19:57:56.078Z,8.45
2023-05-14T19:59:57.548Z,7.60
2023-05-14T20:01:59.069Z,8.02
2023-05-14T20:04:00.680Z,8.00
2023-05-14T20:06:03.902Z,8.45
2023-05-14T20:08:05.582Z,10.93
2023-05-14T20:10:08.086Z,10.73
2023-05-14T20:12:09.791Z,9.18
2023-05-14T20:14:11.418Z,8.25
2023-05-14T20:16:12.988Z,8.48
2023-05-14T20:18:14.526Z,6.88
2023-05-14T20:20:16.013Z,10.18
2023-05-14T20:22:18.836Z,8.95
2023-05-14T20:24:20.334Z,9.07
2023-05-14T20:26:22.002Z,9.63
2023-05-14T20:28:23.517Z,12.27
2023-05-14T20:30:25.152Z,8.13
2023-05-14T20:32:26.840Z,8.27
2023-05-14T20:34:28.401Z,8.93
2023-05-14T20:36:30.163Z,8.73
2023-05-14T20:38:33.077Z,7.35
2023-05-14T20:40:34.578Z,8.88
2023-05-14T20:42:36.070Z,9.35
2023-05-14T20:44:37.613Z,8.13
2023-05-14T20:46:39.329Z,8.93
2023-05-14T20:48:40.813Z,13.70
2023-05-14T20:50:42.394Z,10.77
2023-05-14T20:52:43.942Z,9.50
2023-05-14T20:54:46.789Z,8.20
2023-05-14T20:56:48.670Z,8.32
2023-05-14T20:58:50.170Z,9.65
2023-05-14T21:00:51.695Z,7.57
2023-05-14T21:02:53.404Z,9.65
2023-05-14T21:04:55.027Z,8.85
2023-05-14T21:09:23.029Z,7.20
2023-05-14T21:11:25.884Z,7.82
2023-05-14T21:13:27.372Z,8.65
2023-05-14T21:15:28.909Z,8.68
2023-05-14T21:17:30.660Z,7.15
2023-05-14T21:19:32.349Z,6.97
2023-05-14T21:21:33.891Z,9.88
2023-05-14T21:23:35.344Z,7.05
2023-05-14T21:25:36.862Z,8.20
2023-05-14T21:27:39.746Z,7.68
2023-05-14T21:29:41.240Z,8.70
2023-05-14T21:31:42.750Z,9.70
2023-05-14T21:33:44.347Z,7.60
2023-05-14T21:35:45.889Z,9.88
2023-05-14T21:37:47.383Z,7.85
2023-05-14T21:39:48.867Z,9.73
2023-05-14T21:41:50.359Z,8.77
2023-05-14T21:43:53.288Z,9.38
2023-05-14T21:45:55.472Z,7.38
2023-05-14T21:47:57.106Z,10.18
2023-05-14T21:49:58.704Z,7.88
2023-05-14T21:52:00.240Z,8.05
2023-05-14T21:54:01.741Z,10.05
2023-05-14T21:56:03.429Z,8.82
2023-05-14T21:58:06.194Z,9.05
2023-05-14T22:00:10.074Z,9.88
2023-05-14T22:04:13.132Z,7.70
2023-05-14T22:06:14.762Z,8.25
2023-05-14T22:08:16.310Z,7.95
2023-05-14T22:10:18.353Z,9.27
2023-05-14T22:12:19.903Z,8.95
2023-05-14T22:14:21.426Z,8.10
2023-05-14T22:16:24.294Z,8.52
2023-05-14T22:18:25.929Z,7.63
2023-05-14T22:20:27.494Z,8.82
2023-05-14T22:22:28.997Z,9.70
2023-05-14T22:24:30.516Z,7.90
2023-05-14T22:26:32.113Z,7.80
2023-05-14T22:28:33.649Z,8.77
2023-05-14T22:30:35.133Z,7.90
2023-05-14T22:32:38.012Z,7.65
2023-05-14T22:34:39.587Z,8.40
2023-05-14T22:36:41.149Z,7.75
2023-05-14T22:38:42.659Z,8.48
2023-05-14T22:40:44.722Z,9.48
2023-05-14T22:42:46.194Z,8.00
2023-05-14T22:44:47.673Z,6.97
2023-05-14T22:46:49.449Z,7.88
2023-05-14T22:48:52.454Z,9.98
2023-05-14T22:50:53.928Z,7.32
2023-05-14T22:52:55.433Z,7.35
2023-05-14T22:54:56.941Z,7.97
2023-05-14T22:56:58.462Z,7.65
2023-05-14T22:59:01.347Z,8.13
2023-05-14T23:01:03.010Z,8.52
2023-05-14T23:03:04.605Z,7.80
2023-05-14T23:05:08.480Z,9.10
2023-05-14T23:09:11.569Z,9.50
2023-05-14T23:11:13.918Z,12.50
2023-05-14T23:13:15.429Z,8.75
2023-05-14T23:15:17.072Z,9.27
2023-05-14T23:17:18.617Z,11.25
2023-05-14T23:19:21.450Z,10.13
2023-05-14T23:21:24.379Z,10.52
2023-05-14T23:23:25.898Z,7.57
2023-05-14T23:25:27.533Z,7.05
2023-05-14T23:27:29.068Z,7.35
2023-05-14T23:29:30.581Z,7.43
2023-05-14T23:31:32.168Z,9.77
2023-05-14T23:33:33.816Z,10.43
2023-05-14T23:35:37.341Z,8.25
2023-05-14T23:37:40.530Z,7.85
2023-05-14T23:39:42.075Z,11.57
2023-05-14T23:41:43.554Z,8.57
2023-05-14T23:43:45.016Z,8.52
2023-05-14T23:45:46.637Z,8.25
2023-05-14T23:47:48.403Z,9.23
2023-05-14T23:49:49.984Z,10.05
2023-05-14T23:51:51.494Z,8.13
2023-05-14T23:53:54.335Z,6.88
2023-05-14T23:55:55.834Z,7.43
2023-05-14T23:57:57.370Z,8.68
2023-05-14T23:59:58.902Z,8.77
